createdAt,value
2023-06-12T00:01:37.607Z,62.77
2023-06-12T00:06:39.565Z,63.14
2023-06-12T00:11:41.689Z,63.33
2023-06-12T00:16:43.349Z,63.82
2023-06-12T00:21:45.191Z,63.72
2023-06-12T00:26:46.755Z,63.65
2023-06-12T00:31:48.350Z,63.89
2023-06-12T00:36:51.321Z,64.55
2023-06-12T00:41:52.997Z,64.64
2023-06-12T00:46:56.550Z,64.66
2023-06-12T00:51:58.418Z,65.16
2023-06-12T00:57:00.044Z,65.05
2023-06-12T01:02:04.404Z,64.87
2023-06-12T01:07:21.664Z,64.41
2023-06-12T01:12:25.882Z,63.40
2023-06-12T01:17:28.753Z,62.77
2023-06-12T01:22:34.160Z,61.90
2023-06-12T01:28:05.501Z,60.94
2023-06-12T01:33:10.971Z,59.86
2023-06-12T01:38:21.765Z,59.19
2023-06-12T01:43:25.391Z,59.11
2023-06-12T01:48:27.961Z,60.96
2023-06-12T01:53:31.057Z,61.18
2023-06-12T01:58:32.723Z,62.46
2023-06-12T02:03:47.041Z,62.75
2023-06-12T02:08:49.298Z,62.52
2023-06-12T02:13:50.914Z,63.18
2023-06-12T02:18:52.676Z,63.63
2023-06-12T02:23:54.689Z,64.30
2023-06-12T02:29:14.048Z,64.50
2023-06-12T02:34:19.777Z,65.16
2023-06-12T02:39:21.442Z,65.91
2023-06-12T02:44:24.112Z,65.68
2023-06-12T02:49:29.539Z,66.21
2023-06-12T02:54:33.209Z,65.60
2023-06-12T02:59:36.712Z,65.69
2023-06-12T03:04:46.100Z,65.58
2023-06-12T03:09:48.562Z,65.33
2023-06-12T03:14:52.090Z,65.30
2023-06-12T03:19:53.812Z,65.42
2023-06-12T03:24:55.406Z,65.27
2023-06-12T03:29:57.420Z,65.83
2023-06-12T03:34:59.910Z,66.18
2023-06-12T03:40:02.311Z,66.44
2023-06-12T03:45:07.147Z,67.67
2023-06-12T03:50:11.373Z,68.37
2023-06-12T03:55:13.264Z,69.02
2023-06-12T04:00:15.828Z,69.09
2023-06-12T04:05:21.936Z,69.74
2023-06-12T04:10:23.958Z,69.60
2023-06-12T04:15:25.571Z,69.47
2023-06-12T04:20:27.731Z,69.42
2023-06-12T04:25:31.494Z,67.96
2023-06-12T04:30:34.437Z,66.65
2023-06-12T04:35:36.949Z,65.78
2023-06-12T04:40:38.630Z,64.82
2023-06-12T04:45:45.417Z,64.39
2023-06-12T04:50:52.299Z,63.80
2023-06-12T04:55:55.327Z,63.26
2023-06-12T05:01:01.419Z,63.12
2023-06-12T05:06:03.971Z,62.91
2023-06-12T05:11:06.153Z,63.17
2023-06-12T05:16:08.997Z,61.85
2023-06-12T05:21:12.081Z,61.44
2023-06-12T05:26:14.511Z,61.46
2023-06-12T05:31:17.684Z,60.66
2023-06-12T05:36:21.089Z,60.37
2023-06-12T05:41:26.701Z,59.18
2023-06-12T05:46:28.822Z,58.14
2023-06-12T05:51:31.194Z,57.75
2023-06-12T05:56:33.218Z,57.82
2023-06-12T06:01:36.678Z,57.45
2023-06-12T06:06:39.692Z,57.92
2023-06-12T06:11:44.650Z,57.75
2023-06-12T06:16:55.069Z,56.67
2023-06-12T06:22:00.527Z,56.66
2023-06-12T06:27:03.880Z,55.49
2023-06-12T06:32:08.705Z,54.74
2023-06-12T06:37:11.505Z,54.03
2023-06-12T06:42:13.594Z,53.17
2023-06-12T06:47:38.285Z,52.84
2023-06-12T06:52:42.404Z,53.17
2023-06-12T06:57:45.938Z,51.71
2023-06-12T07:02:52.501Z,50.72
2023-06-12T07:08:01.836Z,49.37
2023-06-12T07:13:08.636Z,49.76
2023-06-12T07:18:19.893Z,49.59
2023-06-12T07:23:21.598Z,48.97
2023-06-12T07:28:26.085Z,48.55
2023-06-12T07:33:27.701Z,47.70
2023-06-12T07:38:29.593Z,46.63
2023-06-12T07:43:35.353Z,45.83
2023-06-12T07:48:36.989Z,46.48
2023-06-12T07:53:39.671Z,45.89
2023-06-12T07:58:49.192Z,46.40
2023-06-12T08:03:51.693Z,45.36
2023-06-12T08:08:54.825Z,45.54
2023-06-12T08:13:56.769Z,45.53
2023-06-12T08:19:02.550Z,45.91
2023-06-12T08:24:11.649Z,45.62
2023-06-12T08:29:14.070Z,45.91
2023-06-12T08:34:16.984Z,46.19
2023-06-12T08:39:19.035Z,44.35
2023-06-12T08:44:24.835Z,45.35
2023-06-12T08:49:27.828Z,44.25
2023-06-12T08:54:30.306Z,44.19
2023-06-12T08:59:31.919Z,43.06
2023-06-12T09:04:56.240Z,43.36
2023-06-12T09:10:08.625Z,43.85
2023-06-12T09:15:19.988Z,42.57
2023-06-12T09:20:42.478Z,41.28
2023-06-12T09:26:05.354Z,41.05
2023-06-12T09:31:07.734Z,41.02
2023-06-12T09:36:12.625Z,39.78
2023-06-12T09:41:14.400Z,38.31
2023-06-12T09:46:18.141Z,37.98
2023-06-12T09:51:21.319Z,36.91
2023-06-12T09:56:24.868Z,37.24
2023-06-12T10:01:27.849Z,37.00
2023-06-12T10:06:32.336Z,36.44
2023-06-12T10:11:38.070Z,35.10
2023-06-12T10:16:51.204Z,35.03
2023-06-12T10:21:54.743Z,35.91
2023-06-12T10:26:58.088Z,35.91
2023-06-12T10:32:10.682Z,36.80
2023-06-12T10:37:24.758Z,36.50
2023-06-12T10:42:44.680Z,36.40
2023-06-12T10:48:07.688Z,36.84
2023-06-12T10:53:20.303Z,37.39
2023-06-12T10:58:26.671Z,36.69
2023-06-12T11:03:31.009Z,37.09
2023-06-12T11:08:32.923Z,37.39
2023-06-12T11:13:34.624Z,36.00
2023-06-12T11:18:36.430Z,35.94
2023-06-12T11:23:43.807Z,35.40
2023-06-12T11:28:50.568Z,35.04
2023-06-12T11:33:59.740Z,34.76
2023-06-12T11:44:26.701Z,34.64
2023-06-12T11:49:32.362Z,34.71
2023-06-12T12:00:09.923Z,33.61
2023-06-12T12:05:13.172Z,34.46
2023-06-12T12:10:20.197Z,35.06
2023-06-12T12:15:22.399Z,34.79
2023-06-12T12:20:26.531Z,33.69
2023-06-12T12:25:33.625Z,33.60
2023-06-12T12:30:35.395Z,33.57
2023-06-12T12:35:37.072Z,34.31
2023-06-12T12:40:38.671Z,33.54
2023-06-12T12:45:40.293Z,33.06
2023-06-12T12:50:56.626Z,33.06
2023-06-12T12:56:04.180Z,33.27
2023-06-12T13:01:08.088Z,33.02
2023-06-12T13:06:21.052Z,32.75
2023-06-12T13:11:22.627Z,32.73
2023-06-12T13:16:24.241Z,32.59
2023-06-12T13:21:26.014Z,32.50
2023-06-12T13:26:27.735Z,33.13
2023-06-12T13:31:30.213Z,33.13
2023-06-12T13:36:32.670Z,33.14
2023-06-12T13:41:34.285Z,33.39
2023-06-12T13:46:37.597Z,32.98
2023-06-12T13:51:39.506Z,33.03
2023-06-12T13:56:41.193Z,33.32
2023-06-12T14:01:43.459Z,33.03
2023-06-12T14:06:45.112Z,32.41
2023-06-12T14:11:46.693Z,32.58
2023-06-12T14:16:48.857Z,33.10
2023-06-12T14:21:50.503Z,32.98
2023-06-12T14:26:52.062Z,32.35
2023-06-12T14:31:53.839Z,33.43
2023-06-12T14:36:55.664Z,32.80
2023-06-12T14:41:57.265Z,32.69
2023-06-12T14:46:58.970Z,33.13
2023-06-12T14:52:00.621Z,32.40
2023-06-12T14:57:02.335Z,32.28
2023-06-12T15:02:04.085Z,31.53
2023-06-12T15:07:05.768Z,31.90
2023-06-12T15:12:07.852Z,32.16
2023-06-12T15:17:09.531Z,31.98
2023-06-12T15:22:11.183Z,31.73
2023-06-12T15:27:12.743Z,32.12
2023-06-12T15:32:14.270Z,32.34
2023-06-12T15:37:19.365Z,31.52
2023-06-12T15:42:21.199Z,31.88
2023-06-12T15:47:23.038Z,32.09
2023-06-12T15:52:24.718Z,32.05
2023-06-12T15:57:26.358Z,32.13
2023-06-12T16:02:30.684Z,32.03
2023-06-12T16:07:32.447Z,31.94
2023-06-12T16:12:34.003Z,31.66
2023-06-12T16:17:35.615Z,30.99
2023-06-12T16:22:37.279Z,30.97
2023-06-12T16:27:38.955Z,31.85
2023-06-12T16:32:44.072Z,31.07
2023-06-12T16:37:46.116Z,31.80
2023-06-12T16:42:47.758Z,32.13
2023-06-12T16:47:49.392Z,31.63
2023-06-12T16:52:51.012Z,31.71
2023-06-12T16:57:52.713Z,32.15
2023-06-12T17:02:54.509Z,32.07
2023-06-12T17:07:56.161Z,32.53
2023-06-12T17:12:57.734Z,32.38
2023-06-12T17:17:59.340Z,32.64
2023-06-12T17:23:01.984Z,32.64
2023-06-12T17:28:05.020Z,32.48
2023-06-12T17:33:07.856Z,32.35
2023-06-12T17:38:09.538Z,32.87
2023-06-12T17:43:11.148Z,32.98
2023-06-12T17:48:12.826Z,32.66
2023-06-12T17:53:14.554Z,32.91
2023-06-12T17:58:16.127Z,33.75
2023-06-12T18:03:17.799Z,33.91
2023-06-12T18:08:19.533Z,34.21
2023-06-12T18:13:21.085Z,34.00
2023-06-12T18:18:22.988Z,34.19
2023-06-12T18:23:25.432Z,34.01
2023-06-12T18:28:29.681Z,34.20
2023-06-12T18:33:31.241Z,34.04
2023-06-12T18:38:32.944Z,34.62
2023-06-12T18:43:34.551Z,34.18
2023-06-12T18:48:36.379Z,34.66
2023-06-12T18:53:37.945Z,35.62
2023-06-12T18:58:39.737Z,35.60
2023-06-12T19:03:41.350Z,36.75
2023-06-12T19:08:42.980Z,36.88
2023-06-12T19:13:44.699Z,37.41
2023-06-12T19:18:46.431Z,37.87
2023-06-12T19:23:48.738Z,38.01
2023-06-12T19:28:52.783Z,38.38
2023-06-12T19:33:55.061Z,38.48
2023-06-12T19:38:56.743Z,38.97
2023-06-12T19:43:58.285Z,39.12
2023-06-12T19:48:59.846Z,39.00
2023-06-12T19:54:01.389Z,39.23
2023-06-12T19:59:03.363Z,39.82
2023-06-12T20:04:04.961Z,40.19
2023-06-12T20:09:06.587Z,40.63
2023-06-12T20:14:08.167Z,40.71
2023-06-12T20:19:09.720Z,40.96
2023-06-12T20:24:11.513Z,41.21
2023-06-12T20:29:13.190Z,41.49
2023-06-12T20:34:14.902Z,41.67
2023-06-12T20:39:16.483Z,41.95
2023-06-12T20:44:18.052Z,42.46
2023-06-12T20:49:19.808Z,42.60
2023-06-12T20:54:21.352Z,42.69
2023-06-12T20:59:22.906Z,43.11
2023-06-12T21:04:24.481Z,43.03
2023-06-12T21:09:30.664Z,43.34
2023-06-12T21:14:32.357Z,43.92
2023-06-12T21:19:38.462Z,44.17
2023-06-12T21:24:40.015Z,43.73
2023-06-12T21:29:41.649Z,44.66
2023-06-12T21:34:43.203Z,44.79
2023-06-12T21:39:44.890Z,45.17
2023-06-12T21:44:46.441Z,46.28
2023-06-12T21:49:48.085Z,47.71
2023-06-12T21:54:49.712Z,48.36
2023-06-12T21:59:51.312Z,49.13
2023-06-12T22:04:53.033Z,49.66
2023-06-12T22:09:54.958Z,50.38
2023-06-12T22:14:56.780Z,49.57
2023-06-12T22:19:58.570Z,48.20
2023-06-12T22:25:00.195Z,48.79
2023-06-12T22:30:01.784Z,48.65
2023-06-12T22:35:03.750Z,48.52
2023-06-12T22:40:08.636Z,47.48
2023-06-12T22:45:11.796Z,46.21
2023-06-12T22:50:13.645Z,45.50
2023-06-12T22:55:15.688Z,45.76
2023-06-12T23:00:17.878Z,45.35
2023-06-12T23:05:19.792Z,45.61
2023-06-12T23:10:21.688Z,45.46
2023-06-12T23:15:23.294Z,45.06
2023-06-12T23:20:27.787Z,45.45
2023-06-12T23:25:29.958Z,44.84
2023-06-12T23:30:31.556Z,44.55
2023-06-12T23:35:33.152Z,44.34
2023-06-12T23:40:34.959Z,44.71
2023-06-12T23:45:36.539Z,43.92
2023-06-12T23:50:38.450Z,44.14
2023-06-12T23:55:40.013Z,44.44
